Time;durP1;ratioP1;P1;durP2;ratioP2;P2;SDS_P1;SDS_P2;PMS_P1;PMS_P2;Temp;Humidity;BMP_temperature;BMP_pressure;BME280_temperature;BME280_humidity;BME280_pressure;Samples;Min_cycle;Max_cycle;Signal;HPM_P1;HPM_P2
2021/05/07 00:00:56;;;;;;;;;;;;;;;13.23;43.70;99134.69;4466005;32;33390;-76
2021/05/07 00:03:23;;;;;;;;;;;;;;;13.72;43.15;99137.84;4474408;32;37013;-76
2021/05/07 00:05:54;;;;;;;;;;;;;;;13.64;42.68;99129.88;4445280;32;34180;-76
2021/05/07 00:08:25;;;;;;;;;;;;;;;13.81;42.48;99140.28;4458671;32;32595;-76
2021/05/07 00:10:53;;;;;;;;;;;;;;;13.89;43.10;99126.00;4435054;32;33720;-76
2021/05/07 00:13:21;;;;;;;;;;;;;;;14.10;42.71;99120.75;4446443;32;34442;-76
2021/05/07 00:15:48;;;;;;;;;;;;;;;14.16;43.76;99120.03;4447540;32;33980;-76
2021/05/07 00:18:15;;;;;;;;;;;;;;;14.11;43.09;99114.41;4467573;32;33890;-76
2021/05/07 00:20:43;;;;;;;;;;;;;;;14.35;42.38;99120.34;4452221;32;34867;-76
2021/05/07 00:23:11;;;;;;;;;;;;;;;14.40;42.27;99107.25;4447858;32;35186;-76
2021/05/07 00:25:39;;;;;;;;;;;;;;;14.49;42.10;99114.19;4460984;32;32227;-76
2021/05/07 00:28:11;;;;;;;;;;;;;;;14.57;41.86;99116.75;4471750;32;32888;-76
2021/05/07 00:30:39;;;;;;;;;;;;;;;14.49;42.53;99120.34;4445688;32;34809;-76
2021/05/07 00:33:07;;;;;;;;;;;;;;;14.53;43.05;99118.97;4467062;32;34452;-76
2021/05/07 00:35:34;;;;;;;;;;;;;;;14.20;43.73;99108.81;4452588;32;32876;-76
2021/05/07 00:38:02;;;;;;;;;;;;;;;13.72;44.74;99087.88;4452630;32;33385;-76
2021/05/07 00:40:29;;;;;;;;;;;;;;;14.10;45.15;99105.56;4451422;32;34714;-76
2021/05/07 00:42:57;;;;;;;;;;;;;;;14.19;44.95;99103.66;4469654;32;35964;-76
2021/05/07 00:45:25;;;;;;;;;;;;;;;14.30;44.29;99098.69;4457350;32;34863;-76
2021/05/07 00:47:56;;;;;;;;;;;;;;;14.20;44.83;99095.44;4449086;32;34156;-76
2021/05/07 00:50:25;;;;;;;;;;;;;;;14.08;44.94;99088.88;4450889;32;35035;-76
2021/05/07 00:52:58;;;;;;;;;;;;;;;13.93;45.10;99085.34;4433912;32;35207;-76
2021/05/07 00:55:26;;;;;;;;;;;;;;;14.10;45.94;99088.66;4446449;32;33697;-76
2021/05/07 00:57:55;;;;;;;;;;;;;;;13.95;45.85;99085.97;4452631;32;32224;-76
2021/05/07 01:00:22;;;;;;;;;;;;;;;13.55;46.75;99083.69;4446064;32;33265;-76
2021/05/07 01:02:51;;;;;;;;;;;;;;;13.78;46.64;99089.81;4433180;32;33229;-76
2021/05/07 01:05:36;;;;;;;;;;;;;;;13.88;46.33;99087.72;4443796;32;35257;-76
2021/05/07 01:08:05;;;;;;;;;;;;;;;13.89;46.29;99086.69;4435122;32;33288;-76
2021/05/07 01:10:33;;;;;;;;;;;;;;;13.88;46.25;99084.22;4465840;32;34566;-76
2021/05/07 01:13:00;;;;;;;;;;;;;;;13.68;46.06;99083.91;4460494;32;35034;-76
2021/05/07 01:15:41;;;;;;;;;;;;;;;13.73;46.43;99078.00;4451924;32;34407;-76
2021/05/07 01:18:10;;;;;;;;;;;;;;;13.57;46.42;99075.47;4445387;32;34076;-76
2021/05/07 01:20:38;;;;;;;;;;;;;;;13.27;47.68;99077.25;4459273;32;34744;-76
2021/05/07 01:23:09;;;;;;;;;;;;;;;13.18;48.34;99077.47;4459518;32;35588;-76
2021/05/07 01:25:38;;;;;;;;;;;;;;;13.38;48.65;99079.50;4464959;32;33972;-76
2021/05/07 01:28:06;;;;;;;;;;;;;;;13.45;48.31;99087.63;4463874;32;34098;-76
2021/05/07 01:30:34;;;;;;;;;;;;;;;13.36;48.44;99080.66;4471601;32;34516;-76
2021/05/07 01:33:02;;;;;;;;;;;;;;;13.40;47.88;99084.66;4458310;32;35715;-76
2021/05/07 01:35:30;;;;;;;;;;;;;;;13.38;47.95;99079.50;4455899;32;34491;-76
2021/05/07 01:37:58;;;;;;;;;;;;;;;13.21;48.29;99077.94;4446043;32;33784;-75
2021/05/07 01:40:27;;;;;;;;;;;;;;;13.26;47.91;99072.91;4447174;32;33975;-76
2021/05/07 01:42:55;;;;;;;;;;;;;;;12.87;49.21;99073.97;4445645;32;34592;-76
2021/05/07 01:45:27;;;;;;;;;;;;;;;13.12;48.58;99080.88;4470752;32;34944;-76
2021/05/07 01:47:55;;;;;;;;;;;;;;;13.03;49.28;99085.41;4448599;32;33027;-76
2021/05/07 01:50:25;;;;;;;;;;;;;;;12.91;49.78;99081.47;4438543;32;34811;-75
2021/05/07 01:52:52;;;;;;;;;;;;;;;12.81;50.05;99074.66;4446955;32;35143;-76
2021/05/07 01:55:22;;;;;;;;;;;;;;;12.69;50.90;99068.91;4434525;32;34542;-76
2021/05/07 01:57:49;;;;;;;;;;;;;;;12.87;50.31;99066.81;4461380;32;32600;-76
2021/05/07 02:00:17;;;;;;;;;;;;;;;12.93;49.85;99066.09;4446703;32;33209;-76
2021/05/07 02:02:47;;;;;;;;;;;;;;;12.72;50.25;99075.72;4470291;32;34741;-76
2021/05/07 02:05:16;;;;;;;;;;;;;;;12.83;49.97;99078.00;4461731;32;33966;-76
2021/05/07 02:07:43;;;;;;;;;;;;;;;12.62;50.07;99083.94;4431700;32;33773;-76
2021/05/07 02:10:16;;;;;;;;;;;;;;;12.80;49.44;99076.53;4459486;32;33592;-76
2021/05/07 02:12:43;;;;;;;;;;;;;;;12.82;49.35;99066.50;4446745;32;35283;-76
2021/05/07 02:15:12;;;;;;;;;;;;;;;12.82;49.37;99065.66;4451495;32;34585;-76
2021/05/07 02:17:40;;;;;;;;;;;;;;;12.75;49.29;99072.72;4450932;32;33053;-76
2021/05/07 02:20:08;;;;;;;;;;;;;;;12.66;50.03;99079.91;4455235;32;32728;-76
2021/05/07 02:22:35;;;;;;;;;;;;;;;12.61;49.95;99076.97;4465527;32;35251;-76
2021/05/07 02:25:03;;;;;;;;;;;;;;;12.51;50.08;99068.34;4468489;32;34238;-76
2021/05/07 02:27:30;;;;;;;;;;;;;;;12.45;49.97;99063.69;4469627;32;34387;-76
2021/05/07 02:29:58;;;;;;;;;;;;;;;12.51;50.19;99056.81;4453799;32;33809;-76
2021/05/07 02:32:26;;;;;;;;;;;;;;;12.59;50.03;99064.78;4440641;32;33046;-76
2021/05/07 02:34:54;;;;;;;;;;;;;;;12.59;49.99;99067.47;4448424;32;34345;-76
2021/05/07 02:37:21;;;;;;;;;;;;;;;12.52;50.12;99067.31;4458762;32;32465;-76
2021/05/07 02:39:48;;;;;;;;;;;;;;;12.45;50.31;99062.84;4449498;32;32329;-76
2021/05/07 02:42:15;;;;;;;;;;;;;;;12.43;50.29;99056.84;4448156;32;37377;-76
2021/05/07 02:44:44;;;;;;;;;;;;;;;12.47;50.11;99060.84;4448010;32;34001;-76
2021/05/07 02:47:11;;;;;;;;;;;;;;;12.31;50.84;99063.59;4460109;32;33190;-75
2021/05/07 02:49:40;;;;;;;;;;;;;;;12.37;50.80;99073.56;4451824;32;33842;-76
2021/05/07 02:52:07;;;;;;;;;;;;;;;12.37;50.83;99070.91;4473315;32;34814;-76
2021/05/07 02:54:34;;;;;;;;;;;;;;;12.17;51.60;99066.94;4467700;32;34048;-76
2021/05/07 02:57:01;;;;;;;;;;;;;;;12.14;51.86;99061.97;4469380;32;32826;-75
2021/05/07 02:59:29;;;;;;;;;;;;;;;11.68;53.50;99063.59;4452029;32;33500;-76
2021/05/07 03:01:56;;;;;;;;;;;;;;;11.72;53.76;99058.75;4466696;32;35475;-75
2021/05/07 03:04:23;;;;;;;;;;;;;;;11.88;52.78;99056.03;4463259;32;33918;-76
2021/05/07 03:06:50;;;;;;;;;;;;;;;11.80;52.73;99040.91;4447174;32;33943;-76
2021/05/07 03:09:17;;;;;;;;;;;;;;;11.69;52.99;99040.44;4450303;32;34067;-76
2021/05/07 03:11:45;;;;;;;;;;;;;;;11.77;52.94;99041.25;4434872;32;34922;-76
2021/05/07 03:14:12;;;;;;;;;;;;;;;11.24;55.02;99041.94;4447733;32;34822;-76
2021/05/07 03:16:40;;;;;;;;;;;;;;;11.13;55.94;99044.94;4447641;32;33205;-76
2021/05/07 03:19:07;;;;;;;;;;;;;;;11.04;56.49;99036.09;4454499;32;34500;-76
2021/05/07 03:21:35;;;;;;;;;;;;;;;11.15;55.96;99035.78;4451023;32;34958;-76
2021/05/07 03:24:03;;;;;;;;;;;;;;;10.69;57.44;99036.41;4447089;32;34102;-76
2021/05/07 03:26:30;;;;;;;;;;;;;;;11.42;55.52;99040.75;4451561;32;33204;-76
2021/05/07 03:28:57;;;;;;;;;;;;;;;11.53;55.42;99035.94;4472078;32;35978;-76
2021/05/07 03:31:24;;;;;;;;;;;;;;;11.11;56.83;99036.31;4451359;32;34531;-76
2021/05/07 03:33:52;;;;;;;;;;;;;;;11.27;56.78;99039.78;4447218;32;34579;-76
2021/05/07 03:36:19;;;;;;;;;;;;;;;11.54;55.73;99032.25;4443446;32;32341;-76
2021/05/07 03:38:46;;;;;;;;;;;;;;;11.71;55.37;99031.28;4450645;32;33898;-76
2021/05/07 03:41:14;;;;;;;;;;;;;;;11.59;56.31;99035.28;4454884;32;35472;-76
2021/05/07 03:43:41;;;;;;;;;;;;;;;11.77;55.42;99027.94;4450537;32;34320;-76
2021/05/07 03:46:08;;;;;;;;;;;;;;;11.75;55.49;99024.59;4467315;32;35903;-76
2021/05/07 03:48:35;;;;;;;;;;;;;;;11.78;55.44;99026.09;4468961;32;33888;-76
2021/05/07 03:51:03;;;;;;;;;;;;;;;11.86;56.17;99034.91;4446721;32;35597;-76
2021/05/07 03:53:30;;;;;;;;;;;;;;;11.74;56.83;99032.78;4465522;32;34038;-76
2021/05/07 03:55:57;;;;;;;;;;;;;;;11.92;55.72;99036.06;4450531;32;34141;-76
2021/05/07 03:58:24;;;;;;;;;;;;;;;11.96;55.46;99042.69;4453912;32;33413;-76
2021/05/07 04:00:51;;;;;;;;;;;;;;;11.82;55.99;99046.91;4450462;32;34665;-76
2021/05/07 04:03:19;;;;;;;;;;;;;;;11.84;56.28;99047.56;4460828;32;33452;-76
2021/05/07 04:05:49;;;;;;;;;;;;;;;12.06;55.55;99057.50;4448187;32;33037;-76
2021/05/07 04:08:23;;;;;;;;;;;;;;;12.22;54.95;99064.63;4448415;32;33942;-76
2021/05/07 04:11:54;;;;;;;;;;;;;;;12.27;54.85;99064.94;4449667;32;34976;-76
2021/05/07 04:13:47;;;;;;;;;;;;;;;12.18;55.37;99069.47;4454507;32;33817;-76
2021/05/07 04:16:14;;;;;;;;;;;;;;;12.40;55.18;99068.69;4474303;32;33310;-76
2021/05/07 04:18:42;;;;;;;;;;;;;;;12.26;55.92;99074.75;4472348;32;33981;-76
2021/05/07 04:21:09;;;;;;;;;;;;;;;12.53;55.21;99070.81;4448467;32;35201;-76
2021/05/07 04:23:37;;;;;;;;;;;;;;;12.68;54.69;99075.22;4454968;32;34616;-76
2021/05/07 04:26:04;;;;;;;;;;;;;;;12.75;54.48;99075.38;4457477;32;32925;-76
2021/05/07 04:28:31;;;;;;;;;;;;;;;12.79;54.26;99076.69;4446234;32;32290;-76
2021/05/07 04:30:59;;;;;;;;;;;;;;;12.74;55.17;99084.41;4473462;32;34183;-76
2021/05/07 04:33:26;;;;;;;;;;;;;;;12.81;55.11;99093.34;4446454;32;34231;-76
2021/05/07 04:35:53;;;;;;;;;;;;;;;12.95;54.89;99100.66;4434322;32;31755;-76
2021/05/07 04:38:21;;;;;;;;;;;;;;;13.00;55.13;99103.63;4457601;32;34613;-76
2021/05/07 04:40:48;;;;;;;;;;;;;;;13.07;55.24;99104.59;4452253;32;34610;-76
2021/05/07 04:43:15;;;;;;;;;;;;;;;13.05;55.74;99102.06;4451401;32;34966;-76
2021/05/07 04:45:43;;;;;;;;;;;;;;;13.09;56.02;99113.25;4447618;32;33081;-76
2021/05/07 04:48:10;;;;;;;;;;;;;;;13.17;55.84;99119.38;4446634;32;33750;-76
2021/05/07 04:50:38;;;;;;;;;;;;;;;12.93;56.69;99118.66;4448211;32;34912;-76
2021/05/07 04:53:05;;;;;;;;;;;;;;;13.14;56.86;99118.91;4454370;32;33303;-76
2021/05/07 04:55:32;;;;;;;;;;;;;;;13.17;57.33;99123.87;4462023;32;32924;-76
2021/05/07 04:57:59;;;;;;;;;;;;;;;13.11;57.96;99121.94;4432493;32;33033;-76
2021/05/07 05:00:27;;;;;;;;;;;;;;;13.23;57.95;99117.84;4446176;32;35031;-77
2021/05/07 05:02:54;;;;;;;;;;;;;;;13.19;58.49;99111.16;4446485;32;34082;-76
2021/05/07 05:05:21;;;;;;;;;;;;;;;13.15;59.20;99115.22;4447872;32;32704;-76
2021/05/07 05:07:52;;;;;;;;;;;;;;;13.17;59.81;99122.06;4464903;32;34790;-77
2021/05/07 05:10:20;;;;;;;;;;;;;;;13.17;60.65;99122.06;4470903;32;35256;-77
2021/05/07 05:12:47;;;;;;;;;;;;;;;13.38;60.24;99129.41;4475980;32;33664;-77
2021/05/07 05:15:15;;;;;;;;;;;;;;;13.45;59.97;99133.88;4447074;32;35030;-76
2021/05/07 05:17:54;;;;;;;;;;;;;;;13.48;59.97;99132.69;4464739;32;34164;-76
2021/05/07 05:20:22;;;;;;;;;;;;;;;13.50;60.48;99136.03;4434783;32;35721;-76
2021/05/07 05:22:49;;;;;;;;;;;;;;;13.56;60.17;99130.78;4450097;32;34232;-77
2021/05/07 05:25:16;;;;;;;;;;;;;;;13.63;59.95;99122.88;4461478;32;32982;-76
2021/05/07 05:27:44;;;;;;;;;;;;;;;13.72;59.66;99125.31;4473436;32;33979;-76
2021/05/07 05:30:11;;;;;;;;;;;;;;;13.75;60.11;99126.78;4462649;32;35121;-76
2021/05/07 05:32:38;;;;;;;;;;;;;;;13.86;59.56;99121.00;4450692;32;32780;-76
2021/05/07 05:35:06;;;;;;;;;;;;;;;13.79;60.30;99128.09;4447905;32;34007;-76
2021/05/07 05:37:34;;;;;;;;;;;;;;;13.61;60.92;99136.41;4432962;32;33982;-77
2021/05/07 05:40:01;;;;;;;;;;;;;;;13.79;60.23;99134.25;4440360;32;34558;-77
2021/05/07 05:42:31;;;;;;;;;;;;;;;13.94;59.85;99112.91;4466265;32;33971;-76
2021/05/07 05:44:58;;;;;;;;;;;;;;;13.74;60.54;99128.62;4449444;32;32763;-76
2021/05/07 05:47:25;;;;;;;;;;;;;;;13.78;60.68;99124.56;4438859;32;34772;-77
2021/05/07 05:49:57;;;;;;;;;;;;;;;13.83;60.80;99132.91;4454215;32;35049;-77
2021/05/07 05:52:24;;;;;;;;;;;;;;;13.84;60.65;99134.56;4442281;32;34846;-77
2021/05/07 05:54:52;;;;;;;;;;;;;;;13.88;60.70;99132.34;4450961;32;33721;-77
2021/05/07 05:57:20;;;;;;;;;;;;;;;13.82;61.14;99133.06;4472363;32;34719;-77
2021/05/07 05:59:49;;;;;;;;;;;;;;;13.93;60.58;99120.09;4471412;32;35030;-77
2021/05/07 06:02:17;;;;;;;;;;;;;;;13.74;61.19;99123.28;4442563;32;33490;-77
2021/05/07 06:04:46;;;;;;;;;;;;;;;13.99;60.69;99129.25;4447145;32;31584;-77
2021/05/07 06:07:13;;;;;;;;;;;;;;;13.83;61.22;99116.84;4459577;32;34031;-78
2021/05/07 06:09:40;;;;;;;;;;;;;;;13.78;62.69;99143.28;4465831;32;35228;-77
2021/05/07 06:12:07;;;;;;;;;;;;;;;13.12;64.38;99136.94;4450569;32;33382;-78
2021/05/07 06:14:35;;;;;;;;;;;;;;;13.52;63.15;99153.53;4464147;32;33217;-77
2021/05/07 06:17:08;;;;;;;;;;;;;;;13.56;64.12;99170.87;4455175;32;34019;-77
2021/05/07 06:19:36;;;;;;;;;;;;;;;13.74;63.86;99178.56;4442713;32;35177;-77
2021/05/07 06:22:03;;;;;;;;;;;;;;;13.65;65.03;99185.84;4463388;32;34372;-77
2021/05/07 06:24:31;;;;;;;;;;;;;;;13.77;64.83;99189.75;4444676;32;32114;-77
2021/05/07 06:26:59;;;;;;;;;;;;;;;13.78;65.04;99194.09;4462003;32;33980;-77
2021/05/07 06:29:26;;;;;;;;;;;;;;;14.01;64.24;99189.56;4448657;32;34717;-77
2021/05/07 06:31:53;;;;;;;;;;;;;;;13.37;66.15;99163.31;4462501;32;34050;-77
2021/05/07 06:34:20;;;;;;;;;;;;;;;14.15;63.36;99170.03;4446333;32;33002;-77
2021/05/07 06:36:48;;;;;;;;;;;;;;;14.43;62.35;99178.31;4452401;32;34007;-76
2021/05/07 06:39:15;;;;;;;;;;;;;;;14.43;63.00;99181.81;4454649;32;34840;-77
2021/05/07 06:41:43;;;;;;;;;;;;;;;14.36;64.05;99178.22;4433587;32;32897;-77
2021/05/07 06:44:10;;;;;;;;;;;;;;;13.70;67.88;99174.62;4435830;32;31522;-77
2021/05/07 06:46:37;;;;;;;;;;;;;;;14.04;67.05;99175.00;4443733;32;33356;-77
2021/05/07 06:49:05;;;;;;;;;;;;;;;14.34;65.33;99171.41;4439303;32;35180;-77
2021/05/07 06:51:33;;;;;;;;;;;;;;;14.20;66.59;99170.34;4460190;32;35392;-77
2021/05/07 06:54:00;;;;;;;;;;;;;;;13.74;68.62;99162.53;4446155;32;32910;-77
2021/05/07 06:56:28;;;;;;;;;;;;;;;14.25;68.21;99175.97;4449509;32;34628;-77
2021/05/07 06:58:55;;;;;;;;;;;;;;;14.25;67.67;99186.69;4450025;32;34544;-77
2021/05/07 07:01:22;;;;;;;;;;;;;;;14.78;65.70;99189.97;4461844;32;33733;-77
2021/05/07 07:03:49;;;;;;;;;;;;;;;15.05;64.24;99200.00;4462507;32;33361;-77
2021/05/07 07:06:16;;;;;;;;;;;;;;;15.05;62.72;99196.50;4460702;32;32013;-77
2021/05/07 07:08:44;;;;;;;;;;;;;;;15.21;62.66;99189.06;4465390;32;34654;-77
2021/05/07 07:11:11;;;;;;;;;;;;;;;15.39;62.44;99199.44;4458349;32;34366;-77
2021/05/07 07:13:38;;;;;;;;;;;;;;;15.48;61.90;99198.28;4466495;32;32516;-78
2021/05/07 07:16:05;;;;;;;;;;;;;;;15.50;61.39;99190.88;4454761;32;34956;-77
2021/05/07 07:18:33;;;;;;;;;;;;;;;15.44;60.83;99191.63;4472406;32;35021;-77
2021/05/07 07:21:01;;;;;;;;;;;;;;;15.42;61.88;99191.00;4466674;32;34098;-78
2021/05/07 07:23:28;;;;;;;;;;;;;;;15.21;62.43;99194.44;4448126;32;34022;-77
2021/05/07 07:25:56;;;;;;;;;;;;;;;15.41;62.50;99200.87;4457472;32;34116;-77
2021/05/07 07:28:24;;;;;;;;;;;;;;;15.57;61.59;99207.87;4466141;32;34994;-77
2021/05/07 07:31:10;;;;;;;;;;;;;;;15.58;61.76;99201.50;4445717;32;34785;-76
2021/05/07 07:33:37;;;;;;;;;;;;;;;15.77;61.11;99203.53;4463780;32;33209;-76
2021/05/07 07:36:08;;;;;;;;;;;;;;;16.04;61.15;99210.81;4454242;32;34008;-76
2021/05/07 07:38:35;;;;;;;;;;;;;;;15.97;61.18;99196.50;4451500;32;35674;-76
2021/05/07 07:41:03;;;;;;;;;;;;;;;16.01;60.79;99203.13;4450408;32;35244;-76
2021/05/07 07:43:29;;;;;;;;;;;;;;;16.08;61.86;99204.03;4449963;32;34776;-76
2021/05/07 07:45:57;;;;;;;;;;;;;;;16.30;60.78;99197.59;4445959;32;34153;-76
2021/05/07 07:48:25;;;;;;;;;;;;;;;16.03;61.56;99207.31;4461605;32;35335;-76
2021/05/07 07:50:52;;;;;;;;;;;;;;;16.12;60.20;99211.50;4451434;32;35855;-76
2021/05/07 07:53:20;;;;;;;;;;;;;;;16.27;60.28;99208.75;4463545;32;33317;-76
2021/05/07 07:55:48;;;;;;;;;;;;;;;16.33;58.78;99197.25;4450048;32;32805;-76
2021/05/07 07:58:15;;;;;;;;;;;;;;;16.54;57.97;99203.38;4454181;32;35541;-76
2021/05/07 08:00:43;;;;;;;;;;;;;;;16.49;57.51;99213.91;4466803;32;34028;-76
2021/05/07 08:03:10;;;;;;;;;;;;;;;16.45;58.94;99207.28;4440994;32;32159;-76
2021/05/07 08:05:38;;;;;;;;;;;;;;;16.68;58.33;99207.84;4442138;32;32420;-77
2021/05/07 08:08:05;;;;;;;;;;;;;;;16.74;58.46;99200.84;4462565;32;35699;-76
2021/05/07 08:10:32;;;;;;;;;;;;;;;16.93;57.13;99202.81;4448772;32;34471;-76
2021/05/07 08:12:59;;;;;;;;;;;;;;;16.91;56.73;99197.62;4461381;32;33406;-76
2021/05/07 08:15:27;;;;;;;;;;;;;;;17.18;56.41;99195.91;4466753;32;33915;-76
2021/05/07 08:17:55;;;;;;;;;;;;;;;17.14;56.25;99203.56;4466503;32;34611;-76
2021/05/07 08:20:24;;;;;;;;;;;;;;;17.26;55.46;99199.25;4472096;32;34097;-76
2021/05/07 08:22:51;;;;;;;;;;;;;;;17.37;55.57;99203.25;4463508;32;33856;-76
2021/05/07 08:25:20;;;;;;;;;;;;;;;17.08;56.38;99203.53;4462018;32;33978;-76
2021/05/07 08:27:47;;;;;;;;;;;;;;;17.20;54.37;99205.44;4440802;32;34141;-76
2021/05/07 08:30:14;;;;;;;;;;;;;;;17.36;55.32;99199.72;4462499;32;33803;-76
2021/05/07 08:32:42;;;;;;;;;;;;;;;17.42;54.89;99198.09;4470183;32;33101;-76
2021/05/07 08:35:11;;;;;;;;;;;;;;;17.75;53.09;99203.38;4446254;32;34056;-76
2021/05/07 08:37:44;;;;;;;;;;;;;;;17.64;55.52;99209.34;4439307;32;33690;-76
2021/05/07 08:40:15;;;;;;;;;;;;;;;17.60;55.66;99200.00;4446207;32;33937;-76
2021/05/07 08:42:43;;;;;;;;;;;;;;;17.45;54.71;99203.91;4451528;32;31766;-76
2021/05/07 08:45:11;;;;;;;;;;;;;;;17.57;54.82;99203.13;4447405;32;34979;-76
2021/05/07 08:47:39;;;;;;;;;;;;;;;17.31;55.50;99206.72;4443317;32;34597;-76
2021/05/07 08:50:07;;;;;;;;;;;;;;;17.07;56.53;99200.00;4449170;32;34195;-76
2021/05/07 08:52:35;;;;;;;;;;;;;;;17.15;55.81;99204.38;4446860;32;32486;-76
2021/05/07 08:55:04;;;;;;;;;;;;;;;17.25;54.43;99208.34;4460132;32;33607;-76
2021/05/07 08:57:31;;;;;;;;;;;;;;;17.21;55.60;99206.25;4466406;32;33906;-76
2021/05/07 08:59:59;;;;;;;;;;;;;;;17.16;55.71;99206.88;4452807;32;33264;-76
2021/05/07 09:02:30;;;;;;;;;;;;;;;17.11;56.20;99208.50;4434470;32;31479;-76
2021/05/07 09:04:57;;;;;;;;;;;;;;;17.11;54.58;99206.66;4442313;32;32119;-77
2021/05/07 09:07:24;;;;;;;;;;;;;;;16.85;55.47;99211.88;4432628;32;35216;-76
2021/05/07 09:09:58;;;;;;;;;;;;;;;17.12;55.25;99215.53;4462698;32;33681;-77
2021/05/07 09:12:26;;;;;;;;;;;;;;;16.79;56.12;99218.03;4449256;32;32439;-76
2021/05/07 09:14:53;;;;;;;;;;;;;;;17.24;55.77;99219.28;4463985;32;34648;-76
2021/05/07 09:17:28;;;;;;;;;;;;;;;16.86;57.12;99223.44;4467525;32;34984;-76
2021/05/07 09:20:08;;;;;;;;;;;;;;;16.96;56.26;99224.75;4437880;32;32923;-75
2021/05/07 09:22:36;;;;;;;;;;;;;;;16.83;55.91;99224.69;4467485;32;33666;-74
2021/05/07 09:25:03;;;;;;;;;;;;;;;16.46;57.73;99221.53;4443144;32;34948;-75
2021/05/07 09:27:30;;;;;;;;;;;;;;;16.75;57.42;99229.38;4468197;32;34892;-75
2021/05/07 09:29:58;;;;;;;;;;;;;;;16.85;57.70;99230.69;4450369;32;33063;-75
2021/05/07 09:32:32;;;;;;;;;;;;;;;16.63;58.69;99230.94;4469309;32;32585;-75
2021/05/07 09:35:07;;;;;;;;;;;;;;;16.89;58.33;99231.94;4447560;32;33371;-76
2021/05/07 09:37:36;;;;;;;;;;;;;;;16.81;59.23;99236.66;4440954;32;35338;-75
2021/05/07 09:40:11;;;;;;;;;;;;;;;16.88;58.89;99235.66;4451108;32;35432;-75
2021/05/07 09:42:38;;;;;;;;;;;;;;;16.76;60.29;99226.50;4468468;32;33442;-76
2021/05/07 09:45:17;;;;;;;;;;;;;;;16.51;60.92;99213.72;4449360;32;33044;-75
2021/05/07 09:47:47;;;;;;;;;;;;;;;16.11;62.46;99212.53;4467237;32;34462;-76
2021/05/07 09:50:16;;;;;;;;;;;;;;;15.92;62.76;99209.66;4436517;32;33656;-75
2021/05/07 09:52:44;;;;;;;;;;;;;;;15.79;63.54;99190.78;4441214;32;33246;-76
2021/05/07 09:55:11;;;;;;;;;;;;;;;15.27;65.24;99182.97;4443987;32;33290;-76
2021/05/07 09:57:40;;;;;;;;;;;;;;;15.44;64.60;99183.59;4445701;32;36057;-76
2021/05/07 10:00:07;;;;;;;;;;;;;;;15.51;64.03;99193.34;4443805;32;35326;-76
2021/05/07 10:02:39;;;;;;;;;;;;;;;15.98;63.45;99196.31;4438032;32;33022;-76
2021/05/07 10:05:08;;;;;;;;;;;;;;;15.73;65.04;99199.56;4436225;32;34228;-76
2021/05/07 10:07:35;;;;;;;;;;;;;;;16.38;62.92;99202.88;4446984;32;35715;-76
2021/05/07 10:10:03;;;;;;;;;;;;;;;16.46;62.59;99211.62;4454462;32;35461;-76
2021/05/07 10:12:32;;;;;;;;;;;;;;;16.81;61.36;99204.41;4440250;32;34124;-76
2021/05/07 10:14:59;;;;;;;;;;;;;;;16.94;60.29;99201.78;4445411;32;33832;-76
2021/05/07 10:17:27;;;;;;;;;;;;;;;17.23;59.83;99212.25;4443804;32;35730;-76
2021/05/07 10:19:55;;;;;;;;;;;;;;;16.88;62.79;99219.53;4445069;32;34580;-76
2021/05/07 10:22:35;;;;;;;;;;;;;;;16.74;60.77;99216.97;4431631;32;33163;-76
2021/05/07 10:25:16;;;;;;;;;;;;;;;17.07;61.23;99218.00;4444630;32;33997;-76
2021/05/07 10:27:45;;;;;;;;;;;;;;;16.94;60.21;99210.69;4442589;32;35026;-76
2021/05/07 10:30:25;;;;;;;;;;;;;;;16.81;58.95;99217.84;4438931;32;34568;-76
2021/05/07 10:33:09;;;;;;;;;;;;;;;16.91;58.59;99212.94;4458788;32;32241;-76
2021/05/07 10:35:38;;;;;;;;;;;;;;;16.74;59.48;99209.75;4440388;32;33522;-77
2021/05/07 10:38:13;;;;;;;;;;;;;;;16.30;60.63;99219.09;4461144;32;34801;-76
2021/05/07 10:40:51;;;;;;;;;;;;;;;16.53;60.79;99217.84;4441654;32;34543;-76
2021/05/07 10:43:18;;;;;;;;;;;;;;;16.48;60.79;99220.31;4464554;32;33140;-76
2021/05/07 10:45:51;;;;;;;;;;;;;;;16.58;60.05;99220.78;4443597;32;33610;-76
2021/05/07 10:48:23;;;;;;;;;;;;;;;16.65;60.43;99234.25;4452259;32;35376;-77
2021/05/07 10:50:56;;;;;;;;;;;;;;;16.69;60.12;99235.53;4436133;32;32862;-77
2021/05/07 10:53:28;;;;;;;;;;;;;;;16.59;60.32;99238.56;4437635;32;32795;-76
2021/05/07 10:55:56;;;;;;;;;;;;;;;16.21;61.42;99242.56;4448201;32;32259;-76
2021/05/07 10:58:33;;;;;;;;;;;;;;;15.75;63.90;99249.31;4443715;32;35086;-76
2021/05/07 11:01:14;;;;;;;;;;;;;;;16.32;62.79;99244.72;4460762;32;34831;-78
2021/05/07 11:03:42;;;;;;;;;;;;;;;15.84;65.06;99260.75;4444886;32;34105;-77
2021/05/07 11:06:10;;;;;;;;;;;;;;;15.67;65.54;99283.47;4437445;32;33042;-78
2021/05/07 11:08:37;;;;;;;;;;;;;;;15.79;65.23;99276.59;4448289;32;34729;-77
2021/05/07 11:11:05;;;;;;;;;;;;;;;15.84;65.37;99282.22;4457102;32;35302;-77
2021/05/07 11:13:33;;;;;;;;;;;;;;;15.52;66.28;99283.53;4456537;32;33512;-77
2021/05/07 11:16:00;;;;;;;;;;;;;;;15.46;67.02;99280.72;4469582;32;33435;-78
2021/05/07 11:18:29;;;;;;;;;;;;;;;15.35;67.25;99265.97;4429071;32;35513;-76
2021/05/07 11:20:56;;;;;;;;;;;;;;;14.94;69.47;99248.69;4433876;32;32791;-76
2021/05/07 11:23:33;;;;;;;;;;;;;;;14.73;70.59;99242.41;4470427;32;33274;-76
2021/05/07 11:26:05;;;;;;;;;;;;;;;14.87;70.45;99238.91;4461524;32;33890;-77
2021/05/07 11:28:39;;;;;;;;;;;;;;;14.91;70.30;99257.09;4453037;32;33668;-76
2021/05/07 11:31:06;;;;;;;;;;;;;;;14.91;70.87;99258.94;4445239;32;34605;-77
2021/05/07 11:33:34;;;;;;;;;;;;;;;14.69;70.40;99257.16;4466911;32;32375;-78
2021/05/07 11:36:06;;;;;;;;;;;;;;;14.87;69.75;99242.44;4436118;32;35003;-77
2021/05/07 11:38:44;;;;;;;;;;;;;;;14.71;68.99;99229.19;4451677;32;34646;-77
2021/05/07 11:41:21;;;;;;;;;;;;;;;14.75;69.18;99233.16;4428665;32;34611;-76
2021/05/07 11:43:50;;;;;;;;;;;;;;;14.66;68.88;99238.81;4462050;32;32990;-77
2021/05/07 11:46:18;;;;;;;;;;;;;;;14.64;69.68;99249.69;4460630;32;33915;-77
2021/05/07 11:48:46;;;;;;;;;;;;;;;14.39;70.37;99250.12;4468133;32;34815;-76
2021/05/07 11:51:18;;;;;;;;;;;;;;;14.38;70.00;99242.25;4449548;32;34018;-76
2021/05/07 11:53:45;;;;;;;;;;;;;;;14.79;69.14;99238.97;4450069;32;32544;-76
2021/05/07 11:56:20;;;;;;;;;;;;;;;14.63;68.82;99231.97;4449891;32;33240;-76
2021/05/07 11:58:51;;;;;;;;;;;;;;;14.27;70.01;99240.03;4451728;32;34838;-76
2021/05/07 12:01:19;;;;;;;;;;;;;;;14.41;69.40;99237.38;4467403;32;34157;-76
2021/05/07 12:03:47;;;;;;;;;;;;;;;14.29;69.85;99229.97;4444368;32;32561;-76
2021/05/07 12:06:25;;;;;;;;;;;;;;;14.66;68.57;99230.78;4465303;32;33308;-77
2021/05/07 12:08:54;;;;;;;;;;;;;;;14.43;69.59;99220.12;4464560;32;34922;-76
2021/05/07 12:11:21;;;;;;;;;;;;;;;14.14;70.70;99215.69;4470871;32;34257;-75
2021/05/07 12:13:48;;;;;;;;;;;;;;;14.24;70.43;99224.34;4467943;32;33275;-76
2021/05/07 12:16:26;;;;;;;;;;;;;;;14.41;69.63;99220.50;4454364;32;33264;-76
2021/05/07 12:18:54;;;;;;;;;;;;;;;14.42;69.67;99214.13;4453358;32;34913;-76
2021/05/07 12:21:21;;;;;;;;;;;;;;;14.42;69.63;99225.66;4445751;32;33764;-76
2021/05/07 12:23:48;;;;;;;;;;;;;;;14.52;69.73;99220.88;4446482;32;33519;-75
2021/05/07 12:26:16;;;;;;;;;;;;;;;14.66;69.10;99218.19;4471746;32;33344;-77
2021/05/07 12:29:13;;;;;;;;;;;;;;;14.28;70.13;99197.03;4454389;32;33441;-76
2021/05/07 12:31:40;;;;;;;;;;;;;;;14.37;69.66;99214.69;4443741;32;35059;-75
2021/05/07 12:34:17;;;;;;;;;;;;;;;14.39;69.36;99185.87;4470125;32;33863;-76
2021/05/07 12:36:55;;;;;;;;;;;;;;;14.71;68.94;99194.41;4452291;32;35635;-77
2021/05/07 12:39:26;;;;;;;;;;;;;;;15.00;68.87;99215.81;4470040;32;34658;-76
2021/05/07 12:41:55;;;;;;;;;;;;;;;14.97;68.71;99210.81;4451328;32;33784;-75
2021/05/07 12:44:22;;;;;;;;;;;;;;;14.64;68.62;99206.03;4452776;32;32720;-76
2021/05/07 12:46:49;;;;;;;;;;;;;;;14.78;69.23;99208.72;4452055;32;34514;-76
2021/05/07 12:49:18;;;;;;;;;;;;;;;14.85;69.48;99225.69;4466759;32;34531;-76
2021/05/07 12:51:46;;;;;;;;;;;;;;;15.02;69.15;99227.16;4470355;32;34539;-76
2021/05/07 12:54:13;;;;;;;;;;;;;;;14.78;69.27;99221.25;4464061;32;33362;-77
2021/05/07 12:56:43;;;;;;;;;;;;;;;14.71;68.29;99221.16;4454053;32;33863;-77